Ferdinand, Idaho
Current Conditions -  °F | °C
As of 2:30 AM on Sunday 21 Dec 2014 (Local Time) from KGIC Reporting Station
Overcast Overcast  
Wind Chill:   Ceiling: 4600
Heat Index:   Visibility: 7mi
Dew Point:   Wind: 29mph
Humidity: 78%   Direction: 210°SSW
Pressure: 29.59"   Gusts: 38mph
Location:  46.15°N, 116.39°W
Report Text: KGIC 211030Z AUTO 21025G33KT 7SM SCT035 BKN046 OVC055 06/02 A2959 RMK AO1 P0001 T00580022
Loading
Personal Weather Stations






























Interactive Weather Map New forecast layout! Learn more

10-Day Weather Forecast

Advertisements
Track Severe Weather on mobile